sensor_id;sensor_type;location;lat;lon;timestamp;P1;durP1;ratioP1;P2;durP2;ratioP2
14396;SDS011;50653;47.810;13.022;2024-01-15T00:02:12;3.07;;;2.50;;
14396;SDS011;50653;47.810;13.022;2024-01-15T00:04:38;2.93;;;2.73;;
14396;SDS011;50653;47.810;13.022;2024-01-15T00:07:05;2.80;;;2.60;;
14396;SDS011;50653;47.810;13.022;2024-01-15T00:09:31;3.63;;;2.87;;
14396;SDS011;50653;47.810;13.022;2024-01-15T00:11:58;3.17;;;2.67;;
14396;SDS011;50653;47.810;13.022;2024-01-15T00:14:24;3.00;;;2.80;;
14396;SDS011;50653;47.810;13.022;2024-01-15T00:16:50;2.93;;;2.73;;
14396;SDS011;50653;47.810;13.022;2024-01-15T00:19:16;3.63;;;3.33;;
14396;SDS011;50653;47.810;13.022;2024-01-15T00:21:43;5.43;;;3.47;;
14396;SDS011;50653;47.810;13.022;2024-01-15T00:24:09;4.10;;;3.37;;
14396;SDS011;50653;47.810;13.022;2024-01-15T00:26:35;3.70;;;3.50;;
14396;SDS011;50653;47.810;13.022;2024-01-15T00:29:01;4.80;;;3.23;;
14396;SDS011;50653;47.810;13.022;2024-01-15T00:31:27;4.60;;;4.20;;
14396;SDS011;50653;47.810;13.022;2024-01-15T00:33:54;3.20;;;2.50;;
14396;SDS011;50653;47.810;13.022;2024-01-15T00:36:20;5.73;;;3.37;;
14396;SDS011;50653;47.810;13.022;2024-01-15T00:38:46;2.60;;;2.40;;
14396;SDS011;50653;47.810;13.022;2024-01-15T00:41:12;4.10;;;3.70;;
14396;SDS011;50653;47.810;13.022;2024-01-15T00:43:38;3.27;;;2.43;;
14396;SDS011;50653;47.810;13.022;2024-01-15T00:46:04;2.70;;;2.50;;
14396;SDS011;50653;47.810;13.022;2024-01-15T00:48:30;4.30;;;3.07;;
14396;SDS011;50653;47.810;13.022;2024-01-15T00:50:57;2.27;;;2.07;;
14396;SDS011;50653;47.810;13.022;2024-01-15T00:53:22;2.40;;;2.20;;
14396;SDS011;50653;47.810;13.022;2024-01-15T00:55:48;1.60;;;1.50;;
14396;SDS011;50653;47.810;13.022;2024-01-15T00:58:14;2.47;;;2.20;;
14396;SDS011;50653;47.810;13.022;2024-01-15T01:00:40;3.27;;;2.40;;
14396;SDS011;50653;47.810;13.022;2024-01-15T01:03:06;2.73;;;2.40;;
14396;SDS011;50653;47.810;13.022;2024-01-15T01:05:32;3.37;;;3.07;;
14396;SDS011;50653;47.810;13.022;2024-01-15T01:07:58;2.70;;;2.50;;
14396;SDS011;50653;47.810;13.022;2024-01-15T01:10:24;2.30;;;2.20;;
14396;SDS011;50653;47.810;13.022;2024-01-15T01:12:50;2.17;;;1.97;;
14396;SDS011;50653;47.810;13.022;2024-01-15T01:15:15;3.40;;;2.70;;
14396;SDS011;50653;47.810;13.022;2024-01-15T01:17:41;4.80;;;2.10;;
14396;SDS011;50653;47.810;13.022;2024-01-15T01:20:07;1.80;;;1.67;;
14396;SDS011;50653;47.810;13.022;2024-01-15T01:22:34;2.00;;;1.87;;
14396;SDS011;50653;47.810;13.022;2024-01-15T01:25:00;2.43;;;1.27;;
14396;SDS011;50653;47.810;13.022;2024-01-15T01:27:26;2.53;;;1.60;;
14396;SDS011;50653;47.810;13.022;2024-01-15T01:29:52;1.97;;;1.77;;
14396;SDS011;50653;47.810;13.022;2024-01-15T01:32:18;1.67;;;1.57;;
14396;SDS011;50653;47.810;13.022;2024-01-15T01:34:43;1.63;;;1.53;;
14396;SDS011;50653;47.810;13.022;2024-01-15T01:37:09;1.43;;;1.30;;
14396;SDS011;50653;47.810;13.022;2024-01-15T01:39:38;2.10;;;2.00;;
14396;SDS011;50653;47.810;13.022;2024-01-15T01:42:04;3.07;;;1.47;;
14396;SDS011;50653;47.810;13.022;2024-01-15T01:44:30;1.73;;;1.60;;
14396;SDS011;50653;47.810;13.022;2024-01-15T01:46:56;1.60;;;1.50;;
14396;SDS011;50653;47.810;13.022;2024-01-15T01:49:24;1.63;;;1.53;;
14396;SDS011;50653;47.810;13.022;2024-01-15T01:51:50;0.90;;;0.90;;
14396;SDS011;50653;47.810;13.022;2024-01-15T01:54:16;1.17;;;1.07;;
14396;SDS011;50653;47.810;13.022;2024-01-15T01:56:44;1.67;;;1.40;;
14396;SDS011;50653;47.810;13.022;2024-01-15T01:59:12;1.77;;;1.67;;
14396;SDS011;50653;47.810;13.022;2024-01-15T02:01:38;1.70;;;1.60;;
14396;SDS011;50653;47.810;13.022;2024-01-15T02:04:04;0.80;;;0.80;;
14396;SDS011;50653;47.810;13.022;2024-01-15T02:06:30;1.03;;;0.93;;
14396;SDS011;50653;47.810;13.022;2024-01-15T02:08:56;1.40;;;1.30;;
14396;SDS011;50653;47.810;13.022;2024-01-15T02:11:22;1.13;;;1.03;;
14396;SDS011;50653;47.810;13.022;2024-01-15T02:13:48;1.90;;;1.57;;
14396;SDS011;50653;47.810;13.022;2024-01-15T02:16:13;1.20;;;1.07;;
14396;SDS011;50653;47.810;13.022;2024-01-15T02:18:40;1.67;;;1.57;;
14396;SDS011;50653;47.810;13.022;2024-01-15T02:21:07;2.00;;;1.90;;
14396;SDS011;50653;47.810;13.022;2024-01-15T02:23:32;1.90;;;1.63;;
14396;SDS011;50653;47.810;13.022;2024-01-15T02:25:58;2.50;;;2.20;;
14396;SDS011;50653;47.810;13.022;2024-01-15T02:28:24;2.73;;;2.53;;
14396;SDS011;50653;47.810;13.022;2024-01-15T02:30:49;3.60;;;3.30;;
14396;SDS011;50653;47.810;13.022;2024-01-15T02:33:15;4.37;;;4.00;;
14396;SDS011;50653;47.810;13.022;2024-01-15T02:35:41;6.33;;;4.80;;
14396;SDS011;50653;47.810;13.022;2024-01-15T02:38:06;6.00;;;5.20;;
14396;SDS011;50653;47.810;13.022;2024-01-15T02:40:32;5.53;;;5.10;;
14396;SDS011;50653;47.810;13.022;2024-01-15T02:42:59;6.27;;;4.70;;
14396;SDS011;50653;47.810;13.022;2024-01-15T02:45:25;7.00;;;6.40;;
14396;SDS011;50653;47.810;13.022;2024-01-15T02:47:51;6.07;;;5.13;;
14396;SDS011;50653;47.810;13.022;2024-01-15T02:50:17;6.77;;;4.90;;
14396;SDS011;50653;47.810;13.022;2024-01-15T02:52:43;6.87;;;5.50;;
14396;SDS011;50653;47.810;13.022;2024-01-15T02:55:08;6.93;;;6.10;;
14396;SDS011;50653;47.810;13.022;2024-01-15T02:57:34;7.90;;;5.43;;
14396;SDS011;50653;47.810;13.022;2024-01-15T03:00:00;5.67;;;4.60;;
14396;SDS011;50653;47.810;13.022;2024-01-15T03:02:26;7.00;;;6.40;;
14396;SDS011;50653;47.810;13.022;2024-01-15T03:04:51;6.13;;;5.63;;
14396;SDS011;50653;47.810;13.022;2024-01-15T03:07:17;5.80;;;5.37;;
14396;SDS011;50653;47.810;13.022;2024-01-15T03:09:43;9.13;;;6.70;;
14396;SDS011;50653;47.810;13.022;2024-01-15T03:12:09;7.07;;;5.90;;
14396;SDS011;50653;47.810;13.022;2024-01-15T03:14:35;11.07;;;6.40;;
14396;SDS011;50653;47.810;13.022;2024-01-15T03:17:01;7.13;;;6.00;;
14396;SDS011;50653;47.810;13.022;2024-01-15T03:19:27;6.90;;;6.20;;
14396;SDS011;50653;47.810;13.022;2024-01-15T03:21:53;6.30;;;5.47;;
14396;SDS011;50653;47.810;13.022;2024-01-15T03:24:19;10.40;;;6.77;;
14396;SDS011;50653;47.810;13.022;2024-01-15T03:26:45;7.73;;;5.77;;
14396;SDS011;50653;47.810;13.022;2024-01-15T03:29:10;10.70;;;6.70;;
14396;SDS011;50653;47.810;13.022;2024-01-15T03:31:36;8.77;;;7.60;;
14396;SDS011;50653;47.810;13.022;2024-01-15T03:34:02;9.63;;;8.73;;
14396;SDS011;50653;47.810;13.022;2024-01-15T03:36:28;10.30;;;8.03;;
14396;SDS011;50653;47.810;13.022;2024-01-15T03:38:54;10.70;;;8.40;;
14396;SDS011;50653;47.810;13.022;2024-01-15T03:41:20;8.97;;;6.83;;
14396;SDS011;50653;47.810;13.022;2024-01-15T03:43:45;13.30;;;7.87;;
14396;SDS011;50653;47.810;13.022;2024-01-15T03:46:11;9.83;;;7.40;;
14396;SDS011;50653;47.810;13.022;2024-01-15T03:48:37;13.27;;;7.90;;
14396;SDS011;50653;47.810;13.022;2024-01-15T03:51:03;12.63;;;9.10;;
14396;SDS011;50653;47.810;13.022;2024-01-15T03:53:29;8.50;;;7.63;;
14396;SDS011;50653;47.810;13.022;2024-01-15T03:55:55;17.00;;;9.07;;
14396;SDS011;50653;47.810;13.022;2024-01-15T03:58:20;11.20;;;7.50;;
14396;SDS011;50653;47.810;13.022;2024-01-15T04:00:46;10.90;;;8.27;;
14396;SDS011;50653;47.810;13.022;2024-01-15T04:03:12;9.03;;;6.50;;
14396;SDS011;50653;47.810;13.022;2024-01-15T04:05:38;10.87;;;6.90;;
14396;SDS011;50653;47.810;13.022;2024-01-15T04:08:03;7.93;;;7.07;;
14396;SDS011;50653;47.810;13.022;2024-01-15T04:10:29;5.20;;;4.50;;
14396;SDS011;50653;47.810;13.022;2024-01-15T04:12:55;6.60;;;5.60;;
14396;SDS011;50653;47.810;13.022;2024-01-15T04:15:21;7.43;;;6.03;;
14396;SDS011;50653;47.810;13.022;2024-01-15T04:17:46;7.67;;;5.60;;
14396;SDS011;50653;47.810;13.022;2024-01-15T04:20:12;5.67;;;4.77;;
14396;SDS011;50653;47.810;13.022;2024-01-15T04:22:38;8.63;;;5.40;;
14396;SDS011;50653;47.810;13.022;2024-01-15T04:25:04;5.93;;;4.97;;
14396;SDS011;50653;47.810;13.022;2024-01-15T04:27:30;5.77;;;4.70;;
14396;SDS011;50653;47.810;13.022;2024-01-15T04:29:56;5.60;;;4.47;;
14396;SDS011;50653;47.810;13.022;2024-01-15T04:32:21;6.63;;;5.13;;
14396;SDS011;50653;47.810;13.022;2024-01-15T04:34:47;5.53;;;4.20;;
14396;SDS011;50653;47.810;13.022;2024-01-15T04:37:13;6.50;;;4.87;;
14396;SDS011;50653;47.810;13.022;2024-01-15T04:39:39;6.87;;;4.20;;
14396;SDS011;50653;47.810;13.022;2024-01-15T04:42:04;6.43;;;4.03;;
14396;SDS011;50653;47.810;13.022;2024-01-15T04:44:30;4.90;;;3.90;;
14396;SDS011;50653;47.810;13.022;2024-01-15T04:46:56;3.43;;;3.13;;
14396;SDS011;50653;47.810;13.022;2024-01-15T04:49:22;5.70;;;3.10;;
14396;SDS011;50653;47.810;13.022;2024-01-15T04:51:47;4.03;;;3.33;;
14396;SDS011;50653;47.810;13.022;2024-01-15T04:54:13;4.63;;;4.00;;
14396;SDS011;50653;47.810;13.022;2024-01-15T04:56:43;3.83;;;3.40;;
14396;SDS011;50653;47.810;13.022;2024-01-15T04:59:09;2.73;;;2.43;;
14396;SDS011;50653;47.810;13.022;2024-01-15T05:01:35;4.20;;;3.60;;
14396;SDS011;50653;47.810;13.022;2024-01-15T05:04:01;4.90;;;4.10;;
14396;SDS011;50653;47.810;13.022;2024-01-15T05:06:26;5.23;;;4.23;;
14396;SDS011;50653;47.810;13.022;2024-01-15T05:08:53;4.10;;;2.90;;
14396;SDS011;50653;47.810;13.022;2024-01-15T05:11:18;3.83;;;3.43;;
14396;SDS011;50653;47.810;13.022;2024-01-15T05:13:44;4.53;;;4.03;;
14396;SDS011;50653;47.810;13.022;2024-01-15T05:16:10;3.80;;;3.37;;
14396;SDS011;50653;47.810;13.022;2024-01-15T05:18:35;4.50;;;3.67;;
14396;SDS011;50653;47.810;13.022;2024-01-15T05:21:02;4.17;;;3.80;;
14396;SDS011;50653;47.810;13.022;2024-01-15T05:23:28;3.77;;;3.23;;
14396;SDS011;50653;47.810;13.022;2024-01-15T05:25:56;3.50;;;2.83;;
14396;SDS011;50653;47.810;13.022;2024-01-15T05:28:22;3.10;;;2.80;;
14396;SDS011;50653;47.810;13.022;2024-01-15T05:30:48;3.20;;;2.90;;
14396;SDS011;50653;47.810;13.022;2024-01-15T05:33:15;3.87;;;3.10;;
14396;SDS011;50653;47.810;13.022;2024-01-15T05:35:41;4.17;;;2.63;;
14396;SDS011;50653;47.810;13.022;2024-01-15T05:38:07;4.07;;;3.67;;
14396;SDS011;50653;47.810;13.022;2024-01-15T05:40:33;3.83;;;3.53;;
14396;SDS011;50653;47.810;13.022;2024-01-15T05:42:59;3.07;;;2.80;;
14396;SDS011;50653;47.810;13.022;2024-01-15T05:45:26;2.90;;;2.63;;
14396;SDS011;50653;47.810;13.022;2024-01-15T05:47:52;3.73;;;3.27;;
14396;SDS011;50653;47.810;13.022;2024-01-15T05:50:17;3.80;;;2.60;;
14396;SDS011;50653;47.810;13.022;2024-01-15T05:52:43;3.30;;;3.00;;
14396;SDS011;50653;47.810;13.022;2024-01-15T05:55:09;3.07;;;2.87;;
14396;SDS011;50653;47.810;13.022;2024-01-15T05:57:35;2.07;;;1.90;;
14396;SDS011;50653;47.810;13.022;2024-01-15T06:00:01;2.83;;;2.37;;
14396;SDS011;50653;47.810;13.022;2024-01-15T06:02:31;2.37;;;2.17;;
14396;SDS011;50653;47.810;13.022;2024-01-15T06:04:56;2.47;;;2.27;;
14396;SDS011;50653;47.810;13.022;2024-01-15T06:07:22;2.97;;;2.57;;
14396;SDS011;50653;47.810;13.022;2024-01-15T06:09:48;3.00;;;2.80;;
14396;SDS011;50653;47.810;13.022;2024-01-15T06:12:14;2.47;;;2.00;;
14396;SDS011;50653;47.810;13.022;2024-01-15T06:14:40;2.37;;;2.17;;
14396;SDS011;50653;47.810;13.022;2024-01-15T06:17:06;5.33;;;2.67;;
14396;SDS011;50653;47.810;13.022;2024-01-15T06:19:32;4.40;;;2.60;;
14396;SDS011;50653;47.810;13.022;2024-01-15T06:21:58;6.40;;;3.20;;
14396;SDS011;50653;47.810;13.022;2024-01-15T06:24:23;2.90;;;2.70;;
14396;SDS011;50653;47.810;13.022;2024-01-15T06:26:49;2.43;;;2.07;;
14396;SDS011;50653;47.810;13.022;2024-01-15T06:29:15;3.80;;;2.33;;
14396;SDS011;50653;47.810;13.022;2024-01-15T06:31:40;3.43;;;2.40;;
14396;SDS011;50653;47.810;13.022;2024-01-15T06:34:06;4.30;;;2.00;;
14396;SDS011;50653;47.810;13.022;2024-01-15T06:36:32;3.20;;;2.10;;
14396;SDS011;50653;47.810;13.022;2024-01-15T06:38:57;2.30;;;2.10;;
14396;SDS011;50653;47.810;13.022;2024-01-15T06:41:23;7.50;;;2.60;;
14396;SDS011;50653;47.810;13.022;2024-01-15T06:43:50;2.77;;;2.57;;
14396;SDS011;50653;47.810;13.022;2024-01-15T06:46:20;2.90;;;2.70;;
14396;SDS011;50653;47.810;13.022;2024-01-15T06:48:46;2.20;;;1.87;;
14396;SDS011;50653;47.810;13.022;2024-01-15T06:51:12;10.07;;;2.60;;
14396;SDS011;50653;47.810;13.022;2024-01-15T06:53:37;2.70;;;2.50;;
14396;SDS011;50653;47.810;13.022;2024-01-15T06:56:03;2.20;;;1.60;;
14396;SDS011;50653;47.810;13.022;2024-01-15T06:58:30;2.47;;;2.27;;
14396;SDS011;50653;47.810;13.022;2024-01-15T07:00:56;1.77;;;1.67;;
14396;SDS011;50653;47.810;13.022;2024-01-15T07:03:23;1.90;;;1.80;;
14396;SDS011;50653;47.810;13.022;2024-01-15T07:05:48;1.83;;;1.57;;
14396;SDS011;50653;47.810;13.022;2024-01-15T07:08:14;1.77;;;1.50;;
14396;SDS011;50653;47.810;13.022;2024-01-15T07:10:40;2.10;;;1.50;;
14396;SDS011;50653;47.810;13.022;2024-01-15T07:13:06;1.47;;;1.37;;
14396;SDS011;50653;47.810;13.022;2024-01-15T07:15:31;1.33;;;1.23;;
14396;SDS011;50653;47.810;13.022;2024-01-15T07:17:57;2.23;;;1.63;;
14396;SDS011;50653;47.810;13.022;2024-01-15T07:20:23;1.40;;;1.30;;
14396;SDS011;50653;47.810;13.022;2024-01-15T07:22:48;0.93;;;0.80;;
14396;SDS011;50653;47.810;13.022;2024-01-15T07:25:15;1.90;;;1.37;;
14396;SDS011;50653;47.810;13.022;2024-01-15T07:27:41;2.03;;;1.00;;
14396;SDS011;50653;47.810;13.022;2024-01-15T07:30:10;5.90;;;1.80;;
14396;SDS011;50653;47.810;13.022;2024-01-15T07:32:38;1.40;;;1.30;;
14396;SDS011;50653;47.810;13.022;2024-01-15T07:35:05;1.57;;;1.47;;
14396;SDS011;50653;47.810;13.022;2024-01-15T07:37:31;1.30;;;1.00;;
14396;SDS011;50653;47.810;13.022;2024-01-15T07:39:57;1.50;;;1.40;;
14396;SDS011;50653;47.810;13.022;2024-01-15T07:42:23;1.23;;;0.90;;
14396;SDS011;50653;47.810;13.022;2024-01-15T07:44:49;2.90;;;1.00;;
14396;SDS011;50653;47.810;13.022;2024-01-15T07:47:16;2.23;;;1.40;;
14396;SDS011;50653;47.810;13.022;2024-01-15T07:49:42;1.83;;;1.10;;
14396;SDS011;50653;47.810;13.022;2024-01-15T07:52:08;1.70;;;1.27;;
14396;SDS011;50653;47.810;13.022;2024-01-15T07:54:35;2.93;;;1.83;;
14396;SDS011;50653;47.810;13.022;2024-01-15T07:57:01;2.20;;;1.40;;
14396;SDS011;50653;47.810;13.022;2024-01-15T07:59:30;1.83;;;1.40;;
14396;SDS011;50653;47.810;13.022;2024-01-15T08:01:57;1.77;;;1.67;;
14396;SDS011;50653;47.810;13.022;2024-01-15T08:04:24;1.73;;;1.63;;
14396;SDS011;50653;47.810;13.022;2024-01-15T08:06:50;1.37;;;1.27;;
14396;SDS011;50653;47.810;13.022;2024-01-15T08:09:15;2.30;;;2.10;;
14396;SDS011;50653;47.810;13.022;2024-01-15T08:11:42;3.37;;;3.17;;
14396;SDS011;50653;47.810;13.022;2024-01-15T08:14:08;2.17;;;2.07;;
14396;SDS011;50653;47.810;13.022;2024-01-15T08:16:35;1.43;;;1.33;;
14396;SDS011;50653;47.810;13.022;2024-01-15T08:19:01;1.60;;;1.50;;
14396;SDS011;50653;47.810;13.022;2024-01-15T08:21:27;3.13;;;2.40;;
14396;SDS011;50653;47.810;13.022;2024-01-15T08:24:00;2.23;;;2.10;;
14396;SDS011;50653;47.810;13.022;2024-01-15T08:26:29;1.90;;;1.67;;
14396;SDS011;50653;47.810;13.022;2024-01-15T08:28:55;3.40;;;2.07;;
14396;SDS011;50653;47.810;13.022;2024-01-15T08:31:21;2.37;;;1.80;;
14396;SDS011;50653;47.810;13.022;2024-01-15T08:33:47;1.73;;;1.53;;
14396;SDS011;50653;47.810;13.022;2024-01-15T08:36:13;1.60;;;1.40;;
14396;SDS011;50653;47.810;13.022;2024-01-15T08:38:38;1.40;;;1.30;;
14396;SDS011;50653;47.810;13.022;2024-01-15T08:41:04;1.37;;;1.27;;
14396;SDS011;50653;47.810;13.022;2024-01-15T08:43:30;2.50;;;1.60;;
14396;SDS011;50653;47.810;13.022;2024-01-15T08:45:56;2.50;;;1.80;;
14396;SDS011;50653;47.810;13.022;2024-01-15T08:48:22;2.00;;;1.33;;
14396;SDS011;50653;47.810;13.022;2024-01-15T08:50:48;1.10;;;1.00;;
14396;SDS011;50653;47.810;13.022;2024-01-15T08:53:14;0.90;;;0.80;;
14396;SDS011;50653;47.810;13.022;2024-01-15T08:55:40;1.97;;;1.63;;
14396;SDS011;50653;47.810;13.022;2024-01-15T08:58:07;1.37;;;0.90;;
14396;SDS011;50653;47.810;13.022;2024-01-15T09:00:33;1.83;;;1.10;;
14396;SDS011;50653;47.810;13.022;2024-01-15T09:02:59;1.07;;;1.07;;
14396;SDS011;50653;47.810;13.022;2024-01-15T09:05:25;1.40;;;1.30;;
14396;SDS011;50653;47.810;13.022;2024-01-15T09:07:51;1.53;;;1.43;;
14396;SDS011;50653;47.810;13.022;2024-01-15T09:10:19;1.17;;;1.07;;
14396;SDS011;50653;47.810;13.022;2024-01-15T09:12:45;1.60;;;1.50;;
14396;SDS011;50653;47.810;13.022;2024-01-15T09:15:11;1.40;;;1.30;;
14396;SDS011;50653;47.810;13.022;2024-01-15T09:17:37;2.93;;;2.07;;
14396;SDS011;50653;47.810;13.022;2024-01-15T09:20:03;1.60;;;1.50;;
14396;SDS011;50653;47.810;13.022;2024-01-15T09:22:30;1.90;;;1.80;;
14396;SDS011;50653;47.810;13.022;2024-01-15T09:24:56;1.73;;;1.50;;
14396;SDS011;50653;47.810;13.022;2024-01-15T09:27:22;1.70;;;1.60;;
14396;SDS011;50653;47.810;13.022;2024-01-15T09:29:48;2.07;;;1.70;;
14396;SDS011;50653;47.810;13.022;2024-01-15T09:32:13;1.83;;;1.70;;
14396;SDS011;50653;47.810;13.022;2024-01-15T09:34:41;1.83;;;1.70;;
14396;SDS011;50653;47.810;13.022;2024-01-15T09:37:06;3.90;;;2.40;;
14396;SDS011;50653;47.810;13.022;2024-01-15T09:39:32;2.90;;;2.37;;
14396;SDS011;50653;47.810;13.022;2024-01-15T09:41:58;2.43;;;2.23;;
14396;SDS011;50653;47.810;13.022;2024-01-15T09:44:24;3.10;;;2.10;;
14396;SDS011;50653;47.810;13.022;2024-01-15T09:46:51;3.17;;;2.50;;
14396;SDS011;50653;47.810;13.022;2024-01-15T09:49:18;4.63;;;4.17;;
14396;SDS011;50653;47.810;13.022;2024-01-15T09:51:44;2.60;;;2.40;;
14396;SDS011;50653;47.810;13.022;2024-01-15T09:54:10;3.10;;;2.80;;
14396;SDS011;50653;47.810;13.022;2024-01-15T09:56:38;3.20;;;2.90;;
14396;SDS011;50653;47.810;13.022;2024-01-15T09:59:04;3.73;;;3.43;;
14396;SDS011;50653;47.810;13.022;2024-01-15T10:01:31;4.10;;;3.53;;
14396;SDS011;50653;47.810;13.022;2024-01-15T10:03:57;3.30;;;2.90;;
14396;SDS011;50653;47.810;13.022;2024-01-15T10:06:24;3.17;;;2.87;;
14396;SDS011;50653;47.810;13.022;2024-01-15T10:08:52;2.87;;;2.67;;
14396;SDS011;50653;47.810;13.022;2024-01-15T10:11:20;2.20;;;2.10;;
14396;SDS011;50653;47.810;13.022;2024-01-15T10:13:46;3.70;;;3.07;;
14396;SDS011;50653;47.810;13.022;2024-01-15T10:16:16;4.90;;;2.60;;
14396;SDS011;50653;47.810;13.022;2024-01-15T10:18:41;3.00;;;2.33;;
14396;SDS011;50653;47.810;13.022;2024-01-15T10:21:07;6.50;;;2.33;;
14396;SDS011;50653;47.810;13.022;2024-01-15T10:23:33;2.73;;;2.53;;
14396;SDS011;50653;47.810;13.022;2024-01-15T10:25:59;3.07;;;2.90;;
14396;SDS011;50653;47.810;13.022;2024-01-15T10:28:26;3.27;;;3.07;;
14396;SDS011;50653;47.810;13.022;2024-01-15T10:30:54;3.33;;;2.93;;
14396;SDS011;50653;47.810;13.022;2024-01-15T10:33:23;3.07;;;2.50;;
14396;SDS011;50653;47.810;13.022;2024-01-15T10:35:51;3.13;;;2.93;;
14396;SDS011;50653;47.810;13.022;2024-01-15T10:38:23;2.97;;;2.33;;
14396;SDS011;50653;47.810;13.022;2024-01-15T10:40:52;2.90;;;2.70;;
14396;SDS011;50653;47.810;13.022;2024-01-15T10:43:22;3.13;;;2.83;;
14396;SDS011;50653;47.810;13.022;2024-01-15T10:45:49;4.23;;;3.10;;
14396;SDS011;50653;47.810;13.022;2024-01-15T10:48:16;3.57;;;2.87;;
14396;SDS011;50653;47.810;13.022;2024-01-15T10:50:43;3.43;;;3.17;;
14396;SDS011;50653;47.810;13.022;2024-01-15T10:53:11;4.93;;;2.93;;
14396;SDS011;50653;47.810;13.022;2024-01-15T10:55:38;4.20;;;2.80;;
14396;SDS011;50653;47.810;13.022;2024-01-15T10:58:06;3.00;;;2.70;;
14396;SDS011;50653;47.810;13.022;2024-01-15T11:00:33;5.30;;;4.03;;
14396;SDS011;50653;47.810;13.022;2024-01-15T11:03:01;2.20;;;1.93;;
14396;SDS011;50653;47.810;13.022;2024-01-15T11:05:27;3.87;;;2.77;;
14396;SDS011;50653;47.810;13.022;2024-01-15T11:07:56;4.10;;;3.00;;
14396;SDS011;50653;47.810;13.022;2024-01-15T11:10:37;3.80;;;3.47;;
14396;SDS011;50653;47.810;13.022;2024-01-15T11:15:56;2.63;;;2.40;;
14396;SDS011;50653;47.810;13.022;2024-01-15T11:18:29;2.93;;;2.73;;
14396;SDS011;50653;47.810;13.022;2024-01-15T11:23:47;2.07;;;1.90;;
14396;SDS011;50653;47.810;13.022;2024-01-15T11:26:29;2.30;;;2.20;;
14396;SDS011;50653;47.810;13.022;2024-01-15T11:32:07;2.03;;;1.93;;
14396;SDS011;50653;47.810;13.022;2024-01-15T11:40:17;2.30;;;2.20;;
14396;SDS011;50653;47.810;13.022;2024-01-15T11:42:44;3.37;;;2.27;;
14396;SDS011;50653;47.810;13.022;2024-01-15T11:45:10;3.77;;;2.10;;
14396;SDS011;50653;47.810;13.022;2024-01-15T11:50:17;2.07;;;1.80;;
14396;SDS011;50653;47.810;13.022;2024-01-15T11:52:44;1.53;;;1.43;;
14396;SDS011;50653;47.810;13.022;2024-01-15T11:57:53;1.73;;;1.63;;
14396;SDS011;50653;47.810;13.022;2024-01-15T12:00:19;2.27;;;1.77;;
14396;SDS011;50653;47.810;13.022;2024-01-15T12:02:47;2.20;;;1.77;;
14396;SDS011;50653;47.810;13.022;2024-01-15T12:05:17;3.10;;;1.53;;
14396;SDS011;50653;47.810;13.022;2024-01-15T12:07:44;1.83;;;1.27;;
14396;SDS011;50653;47.810;13.022;2024-01-15T12:10:13;1.60;;;1.50;;
14396;SDS011;50653;47.810;13.022;2024-01-15T12:15:22;1.40;;;1.30;;
14396;SDS011;50653;47.810;13.022;2024-01-15T12:17:49;1.23;;;1.13;;
14396;SDS011;50653;47.810;13.022;2024-01-15T12:20:15;1.23;;;1.13;;
14396;SDS011;50653;47.810;13.022;2024-01-15T12:22:42;1.17;;;1.07;;
14396;SDS011;50653;47.810;13.022;2024-01-15T12:25:08;1.57;;;1.27;;
14396;SDS011;50653;47.810;13.022;2024-01-15T12:27:34;4.30;;;1.33;;
14396;SDS011;50653;47.810;13.022;2024-01-15T12:30:01;0.93;;;0.90;;
14396;SDS011;50653;47.810;13.022;2024-01-15T12:32:26;2.30;;;1.20;;
14396;SDS011;50653;47.810;13.022;2024-01-15T12:34:52;1.53;;;1.07;;
14396;SDS011;50653;47.810;13.022;2024-01-15T12:37:18;1.03;;;0.87;;
14396;SDS011;50653;47.810;13.022;2024-01-15T12:39:47;2.20;;;1.53;;
14396;SDS011;50653;47.810;13.022;2024-01-15T12:42:16;2.97;;;1.93;;
14396;SDS011;50653;47.810;13.022;2024-01-15T12:44:42;1.53;;;1.10;;
14396;SDS011;50653;47.810;13.022;2024-01-15T12:47:10;1.40;;;1.30;;
14396;SDS011;50653;47.810;13.022;2024-01-15T12:49:36;1.50;;;1.40;;
14396;SDS011;50653;47.810;13.022;2024-01-15T12:52:02;1.40;;;0.97;;
14396;SDS011;50653;47.810;13.022;2024-01-15T12:54:28;2.53;;;1.60;;
14396;SDS011;50653;47.810;13.022;2024-01-15T12:56:54;2.80;;;2.33;;
14396;SDS011;50653;47.810;13.022;2024-01-15T12:59:20;1.63;;;1.53;;
14396;SDS011;50653;47.810;13.022;2024-01-15T13:01:45;1.70;;;1.60;;
14396;SDS011;50653;47.810;13.022;2024-01-15T13:04:12;1.30;;;1.20;;
14396;SDS011;50653;47.810;13.022;2024-01-15T13:06:50;2.17;;;1.47;;
14396;SDS011;50653;47.810;13.022;2024-01-15T13:09:16;1.97;;;1.47;;
14396;SDS011;50653;47.810;13.022;2024-01-15T13:11:45;2.20;;;1.07;;
14396;SDS011;50653;47.810;13.022;2024-01-15T13:14:11;1.07;;;0.90;;
14396;SDS011;50653;47.810;13.022;2024-01-15T13:16:39;2.10;;;0.90;;
14396;SDS011;50653;47.810;13.022;2024-01-15T13:19:06;1.10;;;0.80;;
14396;SDS011;50653;47.810;13.022;2024-01-15T13:21:39;0.90;;;0.80;;
14396;SDS011;50653;47.810;13.022;2024-01-15T13:24:08;1.47;;;0.80;;
14396;SDS011;50653;47.810;13.022;2024-01-15T13:26:34;0.90;;;0.80;;
14396;SDS011;50653;47.810;13.022;2024-01-15T13:29:02;0.70;;;0.53;;
14396;SDS011;50653;47.810;13.022;2024-01-15T13:31:29;1.00;;;0.90;;
14396;SDS011;50653;47.810;13.022;2024-01-15T13:33:58;1.00;;;0.60;;
14396;SDS011;50653;47.810;13.022;2024-01-15T13:36:24;1.63;;;0.80;;
14396;SDS011;50653;47.810;13.022;2024-01-15T13:38:50;1.93;;;0.90;;
14396;SDS011;50653;47.810;13.022;2024-01-15T13:41:17;1.30;;;1.20;;
14396;SDS011;50653;47.810;13.022;2024-01-15T13:43:53;0.90;;;0.90;;
14396;SDS011;50653;47.810;13.022;2024-01-15T13:46:28;0.90;;;0.80;;
14396;SDS011;50653;47.810;13.022;2024-01-15T13:48:57;1.00;;;0.90;;
14396;SDS011;50653;47.810;13.022;2024-01-15T13:51:23;0.63;;;0.50;;
14396;SDS011;50653;47.810;13.022;2024-01-15T13:53:49;0.80;;;0.60;;
14396;SDS011;50653;47.810;13.022;2024-01-15T13:56:15;0.90;;;0.73;;
14396;SDS011;50653;47.810;13.022;2024-01-15T13:58:41;1.13;;;0.97;;
14396;SDS011;50653;47.810;13.022;2024-01-15T14:01:08;2.13;;;1.93;;
14396;SDS011;50653;47.810;13.022;2024-01-15T14:03:34;2.57;;;2.00;;
14396;SDS011;50653;47.810;13.022;2024-01-15T14:06:00;2.87;;;2.13;;
14396;SDS011;50653;47.810;13.022;2024-01-15T14:08:28;2.10;;;1.40;;
14396;SDS011;50653;47.810;13.022;2024-01-15T14:10:53;1.80;;;1.70;;
14396;SDS011;50653;47.810;13.022;2024-01-15T14:13:21;3.03;;;2.10;;
14396;SDS011;50653;47.810;13.022;2024-01-15T14:15:47;1.97;;;1.87;;
14396;SDS011;50653;47.810;13.022;2024-01-15T14:18:15;3.77;;;2.77;;
14396;SDS011;50653;47.810;13.022;2024-01-15T14:20:41;1.40;;;1.30;;
14396;SDS011;50653;47.810;13.022;2024-01-15T14:23:08;2.20;;;2.03;;
14396;SDS011;50653;47.810;13.022;2024-01-15T14:25:34;2.40;;;1.43;;
14396;SDS011;50653;47.810;13.022;2024-01-15T14:28:00;1.33;;;1.23;;
14396;SDS011;50653;47.810;13.022;2024-01-15T14:30:25;1.63;;;1.53;;
14396;SDS011;50653;47.810;13.022;2024-01-15T14:32:51;1.50;;;1.40;;
14396;SDS011;50653;47.810;13.022;2024-01-15T14:35:17;1.53;;;1.43;;
14396;SDS011;50653;47.810;13.022;2024-01-15T14:37:42;4.47;;;1.43;;
14396;SDS011;50653;47.810;13.022;2024-01-15T14:40:08;2.80;;;1.50;;
14396;SDS011;50653;47.810;13.022;2024-01-15T14:42:35;1.40;;;0.90;;
14396;SDS011;50653;47.810;13.022;2024-01-15T14:45:02;1.10;;;0.80;;
14396;SDS011;50653;47.810;13.022;2024-01-15T14:47:29;1.80;;;1.17;;
14396;SDS011;50653;47.810;13.022;2024-01-15T14:49:56;1.10;;;1.00;;
14396;SDS011;50653;47.810;13.022;2024-01-15T14:52:22;1.57;;;1.37;;